Архив погоды в Нагорном

Метеограмма Нагорный
Среда, 15 Августа
Время местн. Темп Ветер Видим Явления Облачность нижн/средн/верх Атм. давл. Влжн Точка росы ВНГО R Сост. почвы Tg s
Напр Скр Прв ур.ст ур.м изм
03:00 +5.7° З 1 - 50 км - ясно 692 768 +0.8 86% +3.6° более 2.5 км - - - -
00:00 +8.9° З 2 - более 50 км - ясно 691 766 +1.1 85% +6.5° более 2.5 км - - - -
Вторник, 14 Августа
Время местн. Темп Ветер Видим Явления Облачность нижн/средн/верх Атм. давл. Влжн Точка росы ВНГО R Сост. почвы Tg s
Напр Скр Прв ур.ст ур.м изм
21:00 +14.3° З 1 - 50 км - переменная облачность 690 764 +1.1 82% +11.3° 1 км 0 - - -
18:00 +19.7° Ю-В 2 - 50 км - переменная облачность 689 761 -0.1 59% +11.4° 1 км - - - -
15:00 +21.5° Ю,Ю-З 2 - 50 км - преимущественно облачно 689 761 +0.1 50% +10.6° 1 км - - - -
12:00 +18.7° Ю,Ю-З 2 - более 50 км - преимущественно облачно 689 761 +0.7 67% +12.5° 1 км - - - -
09:00 +15.4° С-В 1 - 50 км - переменная облачность 689 761 +0.5 85% +12.9° 1 км 0 Сухая (без трещин) - -
06:00 +10° З,Ю-З 1 - 50 км - преимущественно облачно 688 762 +0.4 88% +8.1° - - - - -
03:00 +10.7° С-В 1 - более 50 км - ясно 688 762 +0.5 87% +8.7° более 2.5 км - - - -
00:00 +10.5° З,Ю-З 2 - 50 км - облачно 687 761 +0.8 86% +8.3° 1 км - - - -
Понедельник, 13 Августа
Время местн. Темп Ветер Видим Явления Облачность нижн/средн/верх Атм. давл. Влжн Точка росы ВНГО R Сост. почвы Tg s
Напр Скр Прв ур.ст ур.м изм
21:00 +14.3° З,Ю-З 2 - более 50 км - переменная облачность 687 759 +0.5 71% +9.2° 1 км 0 - - -
18:00 +20.8° штиль 0 - 50 км - переменная облачность 686 757 -0.2 49% +9.7° 1 км - - - -
15:00 +20.2° Ю 2 - 50 км - переменная облачность 686 757 -0.4 49% +9.1° 1 км - - - -
12:00 +17° В 2 - 50 км - переменная облачность 687 759 +0.1 69% +11.3° 1 км - - - -
09:00 +10.7° штиль 0 - более 50 км - переменная облачность 687 760 +0.5 83% +8° 1 км 0 Сырая (есть малые или большие лужи) +5° -
06:00 +6.5° З 1 - 50 км - облачно с прояснениями 686 761 +0.2 91% +5.1° - - - - -
03:00 +7.7° З 1 - более 50 км - облачно 686 760 +0.2 91% +6.4° 1 км - - - -
00:00 +9.9° З 1 - 50 км - облачно 686 759 +0.5 91% +8.5° 1 км - - - -
Воскресенье, 12 Августа
Время местн. Темп Ветер Видим Явления Облачность нижн/средн/верх Атм. давл. Влжн Точка росы ВНГО R Сост. почвы Tg s
Напр Скр Прв ур.ст ур.м изм
21:00 +11.4° штиль 0 - более 50 км ливневый дождь облачно 685 759 +0.7 92% +10.2° 1 км 7 - - -
18:00 +15.3° В 1 - 10 км умеренный или сильный ливневый дождь облачно 684 757 +0.2 74% +10.6° 1 км - - - -
15:00 +17.8° штиль 0 - 50 км - облачно 684 756 -0.7 59% +9.7° 1 км - - - -
12:00 +13.1° С-В 1 - более 50 км - облачно 685 758 -0.4 78% +9.4° более 2.5 км - - - -
09:00 +9.1° З,Ю-З 1 - 50 км - облачно 685 759 +0.3 84% +6.5° - 0 Влажная (без луж) - -
06:00 +4.5° Ю-В 1 - 50 км - переменная облачность 685 760 0 89% +2.8° - - - - -
03:00 +4.4° штиль 0 - 50 км - переменная облачность 685 760 +0.1 89% +2.7° 1 км - - - -
00:00 +7.3° штиль 0 - 50 км - ясно 685 759 +0.2 84% +4.8° более 2.5 км - - - -